sensor_id;sensor_type;location;lat;lon;timestamp;pressure;altitude;pressure_sealevel;temperature;humidity
77041;BME280;65974;42.664;23.264;2023-02-28T00:01:12;94817.00;;;6.15;87.86
77041;BME280;65974;42.664;23.264;2023-02-28T00:03:38;94803.00;;;6.14;88.17
77041;BME280;65974;42.664;23.264;2023-02-28T00:06:05;94809.75;;;6.12;88.08
77041;BME280;65974;42.664;23.264;2023-02-28T00:08:31;94821.44;;;6.11;88.23
77041;BME280;65974;42.664;23.264;2023-02-28T00:11:03;94821.44;;;6.11;87.86
77041;BME280;65974;42.664;23.264;2023-02-28T00:13:29;94817.44;;;6.17;87.64
77041;BME280;65974;42.664;23.264;2023-02-28T00:16:11;94825.25;;;6.13;88.30
77041;BME280;65974;42.664;23.264;2023-02-28T00:18:38;94822.28;;;6.15;88.10
77041;BME280;65974;42.664;23.264;2023-02-28T00:21:05;94827.00;;;6.21;87.81
77041;BME280;65974;42.664;23.264;2023-02-28T00:23:31;94832.28;;;6.21;86.99
77041;BME280;65974;42.664;23.264;2023-02-28T00:25:56;94823.50;;;6.17;87.20
77041;BME280;65974;42.664;23.264;2023-02-28T00:28:22;94833.81;;;6.22;87.29
77041;BME280;65974;42.664;23.264;2023-02-28T00:30:48;94840.97;;;6.22;86.94
77041;BME280;65974;42.664;23.264;2023-02-28T00:33:13;94835.63;;;6.34;87.10
77041;BME280;65974;42.664;23.264;2023-02-28T00:35:39;94835.28;;;6.36;86.67
77041;BME280;65974;42.664;23.264;2023-02-28T00:38:04;94836.63;;;6.30;86.68
77041;BME280;65974;42.664;23.264;2023-02-28T00:40:30;94831.50;;;6.21;86.58
77041;BME280;65974;42.664;23.264;2023-02-28T00:42:56;94836.81;;;6.21;87.18
77041;BME280;65974;42.664;23.264;2023-02-28T00:45:21;94829.97;;;6.20;87.24
77041;BME280;65974;42.664;23.264;2023-02-28T00:47:46;94832.88;;;6.15;87.51
77041;BME280;65974;42.664;23.264;2023-02-28T00:50:18;94836.94;;;6.12;87.09
77041;BME280;65974;42.664;23.264;2023-02-28T00:52:45;94835.50;;;6.15;87.17
77041;BME280;65974;42.664;23.264;2023-02-28T00:55:10;94831.03;;;6.03;87.46
77041;BME280;65974;42.664;23.264;2023-02-28T00:57:36;94832.50;;;6.01;88.03
77041;BME280;65974;42.664;23.264;2023-02-28T01:00:03;94826.03;;;5.98;88.01
77041;BME280;65974;42.664;23.264;2023-02-28T01:02:28;94830.19;;;5.99;88.34
77041;BME280;65974;42.664;23.264;2023-02-28T01:04:54;94827.03;;;5.94;88.59
77041;BME280;65974;42.664;23.264;2023-02-28T01:07:19;94823.53;;;5.90;88.88
77041;BME280;65974;42.664;23.264;2023-02-28T01:09:45;94822.63;;;5.86;88.88
77041;BME280;65974;42.664;23.264;2023-02-28T01:12:10;94826.72;;;5.83;88.87
77041;BME280;65974;42.664;23.264;2023-02-28T01:14:36;94822.09;;;5.80;88.68
77041;BME280;65974;42.664;23.264;2023-02-28T01:17:02;94824.53;;;5.73;89.31
77041;BME280;65974;42.664;23.264;2023-02-28T01:19:28;94827.09;;;5.70;88.80
77041;BME280;65974;42.664;23.264;2023-02-28T01:21:53;94830.97;;;5.60;89.16
77041;BME280;65974;42.664;23.264;2023-02-28T01:24:19;94824.31;;;5.50;89.55
77041;BME280;65974;42.664;23.264;2023-02-28T01:26:44;94822.88;;;5.41;89.65
77041;BME280;65974;42.664;23.264;2023-02-28T01:29:10;94822.28;;;5.32;89.71
77041;BME280;65974;42.664;23.264;2023-02-28T01:31:35;94821.06;;;5.29;90.18
77041;BME280;65974;42.664;23.264;2023-02-28T01:34:01;94813.16;;;5.29;90.58
77041;BME280;65974;42.664;23.264;2023-02-28T01:36:27;94825.13;;;5.27;90.54
77041;BME280;65974;42.664;23.264;2023-02-28T01:38:52;94825.03;;;5.23;90.37
77041;BME280;65974;42.664;23.264;2023-02-28T01:41:29;94821.97;;;5.21;89.80
77041;BME280;65974;42.664;23.264;2023-02-28T01:46:33;94839.78;;;5.12;90.07
77041;BME280;65974;42.664;23.264;2023-02-28T01:49:00;94822.53;;;5.15;89.99
77041;BME280;65974;42.664;23.264;2023-02-28T01:51:33;94837.16;;;5.12;89.69
77041;BME280;65974;42.664;23.264;2023-02-28T01:54:03;94843.78;;;5.06;89.99
77041;BME280;65974;42.664;23.264;2023-02-28T01:56:34;94829.03;;;5.05;90.05
77041;BME280;65974;42.664;23.264;2023-02-28T01:59:01;94841.69;;;5.00;90.12
77041;BME280;65974;42.664;23.264;2023-02-28T02:01:27;94836.84;;;5.02;89.72
77041;BME280;65974;42.664;23.264;2023-02-28T02:03:56;94837.59;;;4.90;90.16
77041;BME280;65974;42.664;23.264;2023-02-28T02:06:25;94828.47;;;4.88;90.06
77041;BME280;65974;42.664;23.264;2023-02-28T02:08:55;94830.69;;;4.86;90.20
77041;BME280;65974;42.664;23.264;2023-02-28T02:11:22;94820.91;;;4.86;90.49
77041;BME280;65974;42.664;23.264;2023-02-28T02:30:05;94823.34;;;4.91;90.97
77041;BME280;65974;42.664;23.264;2023-02-28T02:38:41;94825.63;;;4.93;91.64
77041;BME280;65974;42.664;23.264;2023-02-28T02:43:54;94833.88;;;5.03;91.02
77041;BME280;65974;42.664;23.264;2023-02-28T02:46:30;94838.72;;;5.01;91.49
77041;BME280;65974;42.664;23.264;2023-02-28T02:49:03;94833.66;;;4.96;91.11
77041;BME280;65974;42.664;23.264;2023-02-28T02:51:30;94842.66;;;5.07;90.93
77041;BME280;65974;42.664;23.264;2023-02-28T02:56:43;94836.06;;;5.01;91.06
77041;BME280;65974;42.664;23.264;2023-02-28T02:59:12;94836.50;;;5.03;90.67
77041;BME280;65974;42.664;23.264;2023-02-28T03:01:40;94841.91;;;5.07;90.98
77041;BME280;65974;42.664;23.264;2023-02-28T03:04:13;94837.72;;;5.06;90.26
77041;BME280;65974;42.664;23.264;2023-02-28T03:06:41;94834.00;;;5.07;91.08
77041;BME280;65974;42.664;23.264;2023-02-28T03:09:06;94838.06;;;5.04;90.64
77041;BME280;65974;42.664;23.264;2023-02-28T03:11:32;94842.66;;;5.07;90.88
77041;BME280;65974;42.664;23.264;2023-02-28T03:16:54;94858.41;;;5.04;91.19
77041;BME280;65974;42.664;23.264;2023-02-28T03:25:05;94872.56;;;5.11;91.24
77041;BME280;65974;42.664;23.264;2023-02-28T03:27:41;94872.25;;;5.13;90.74
77041;BME280;65974;42.664;23.264;2023-02-28T03:30:17;94868.03;;;5.24;91.04
77041;BME280;65974;42.664;23.264;2023-02-28T03:32:53;94876.84;;;5.16;90.62
77041;BME280;65974;42.664;23.264;2023-02-28T03:35:25;94872.91;;;5.10;90.97
77041;BME280;65974;42.664;23.264;2023-02-28T03:37:58;94865.19;;;5.05;91.03
77041;BME280;65974;42.664;23.264;2023-02-28T03:40:28;94880.91;;;5.13;91.23
77041;BME280;65974;42.664;23.264;2023-02-28T03:43:00;94880.47;;;5.11;91.14
77041;BME280;65974;42.664;23.264;2023-02-28T03:45:33;94874.56;;;5.14;90.96
77041;BME280;65974;42.664;23.264;2023-02-28T03:50:44;94884.47;;;5.17;91.08
77041;BME280;65974;42.664;23.264;2023-02-28T03:53:22;94881.56;;;5.22;90.81
77041;BME280;65974;42.664;23.264;2023-02-28T03:55:57;94892.47;;;5.21;90.74
77041;BME280;65974;42.664;23.264;2023-02-28T04:01:12;94895.22;;;5.24;90.74
77041;BME280;65974;42.664;23.264;2023-02-28T04:03:38;94886.75;;;5.19;90.83
77041;BME280;65974;42.664;23.264;2023-02-28T04:06:07;94886.84;;;5.22;90.54
77041;BME280;65974;42.664;23.264;2023-02-28T04:08:33;94883.44;;;5.22;90.54
77041;BME280;65974;42.664;23.264;2023-02-28T04:11:04;94891.16;;;5.27;90.48
77041;BME280;65974;42.664;23.264;2023-02-28T04:13:31;94887.72;;;5.26;90.69
77041;BME280;65974;42.664;23.264;2023-02-28T04:15:57;94887.16;;;5.33;90.83
77041;BME280;65974;42.664;23.264;2023-02-28T04:18:23;94892.69;;;5.28;90.59
77041;BME280;65974;42.664;23.264;2023-02-28T04:20:48;94884.09;;;5.31;90.63
77041;BME280;65974;42.664;23.264;2023-02-28T04:23:13;94881.78;;;5.29;90.31
77041;BME280;65974;42.664;23.264;2023-02-28T04:25:39;94889.03;;;5.32;90.34
77041;BME280;65974;42.664;23.264;2023-02-28T04:28:06;94887.16;;;5.33;90.31
77041;BME280;65974;42.664;23.264;2023-02-28T04:30:31;94881.78;;;5.29;90.31
77041;BME280;65974;42.664;23.264;2023-02-28T04:32:59;94884.44;;;5.29;90.45
77041;BME280;65974;42.664;23.264;2023-02-28T04:35:24;94896.22;;;5.32;90.17
77041;BME280;65974;42.664;23.264;2023-02-28T04:37:50;94887.94;;;5.33;90.46
77041;BME280;65974;42.664;23.264;2023-02-28T04:40:15;94893.88;;;5.30;90.22
77041;BME280;65974;42.664;23.264;2023-02-28T04:42:41;94896.97;;;5.32;90.38
77041;BME280;65974;42.664;23.264;2023-02-28T04:45:07;94900.25;;;5.41;90.01
77041;BME280;65974;42.664;23.264;2023-02-28T04:47:35;94903.56;;;5.38;90.19
77041;BME280;65974;42.664;23.264;2023-02-28T04:50:01;94900.16;;;5.38;89.82
77041;BME280;65974;42.664;23.264;2023-02-28T04:52:27;94909.28;;;5.40;89.85
77041;BME280;65974;42.664;23.264;2023-02-28T04:54:53;94906.22;;;5.38;89.74
77041;BME280;65974;42.664;23.264;2023-02-28T04:57:18;94917.34;;;5.32;90.15
77041;BME280;65974;42.664;23.264;2023-02-28T04:59:43;94919.19;;;5.31;90.20
77041;BME280;65974;42.664;23.264;2023-02-28T05:02:09;94916.03;;;5.26;90.01
77041;BME280;65974;42.664;23.264;2023-02-28T05:04:34;94918.75;;;5.29;89.74
77041;BME280;65974;42.664;23.264;2023-02-28T05:07:00;94921.84;;;5.31;89.84
77041;BME280;65974;42.664;23.264;2023-02-28T05:09:26;94922.72;;;5.35;89.47
77041;BME280;65974;42.664;23.264;2023-02-28T05:11:53;94918.75;;;5.29;89.48
77041;BME280;65974;42.664;23.264;2023-02-28T05:14:18;94917.91;;;5.25;90.15
77041;BME280;65974;42.664;23.264;2023-02-28T05:16:44;94917.66;;;5.30;89.51
77041;BME280;65974;42.664;23.264;2023-02-28T05:19:09;94917.78;;;5.34;89.22
77041;BME280;65974;42.664;23.264;2023-02-28T05:21:36;94926.34;;;5.31;89.08
77041;BME280;65974;42.664;23.264;2023-02-28T05:24:08;94936.91;;;5.31;89.16
77041;BME280;65974;42.664;23.264;2023-02-28T05:26:36;94936.47;;;5.29;88.87
77041;BME280;65974;42.664;23.264;2023-02-28T05:29:02;94935.94;;;5.23;89.08
77041;BME280;65974;42.664;23.264;2023-02-28T05:31:28;94934.72;;;5.21;89.56
77041;BME280;65974;42.664;23.264;2023-02-28T05:33:53;94944.28;;;5.13;89.07
77041;BME280;65974;42.664;23.264;2023-02-28T05:36:21;94942.41;;;5.14;89.46
77041;BME280;65974;42.664;23.264;2023-02-28T05:38:47;94946.28;;;5.16;89.31
77041;BME280;65974;42.664;23.264;2023-02-28T05:41:14;94953.97;;;5.21;89.02
77041;BME280;65974;42.664;23.264;2023-02-28T05:43:39;94946.06;;;5.21;89.15
77041;BME280;65974;42.664;23.264;2023-02-28T05:46:06;94953.31;;;5.24;89.40
77041;BME280;65974;42.664;23.264;2023-02-28T05:48:34;94949.56;;;5.25;89.34
77041;BME280;65974;42.664;23.264;2023-02-28T05:51:01;94952.44;;;5.20;89.20
77041;BME280;65974;42.664;23.264;2023-02-28T05:53:27;94955.41;;;5.19;89.47
77041;BME280;65974;42.664;23.264;2023-02-28T05:55:53;94953.09;;;5.17;89.01
77041;BME280;65974;42.664;23.264;2023-02-28T05:58:18;94959.25;;;5.21;89.37
77041;BME280;65974;42.664;23.264;2023-02-28T06:00:44;94952.09;;;5.22;89.44
77041;BME280;65974;42.664;23.264;2023-02-28T06:03:09;94949.34;;;5.30;88.84
77041;BME280;65974;42.664;23.264;2023-02-28T06:05:34;94958.47;;;5.33;88.74
77041;BME280;65974;42.664;23.264;2023-02-28T06:08:00;94956.50;;;5.30;88.83
77041;BME280;65974;42.664;23.264;2023-02-28T06:10:25;94952.53;;;5.36;88.87
77041;BME280;65974;42.664;23.264;2023-02-28T06:12:50;94960.56;;;5.39;88.38
77041;BME280;65974;42.664;23.264;2023-02-28T06:15:16;94961.44;;;5.43;89.04
77041;BME280;65974;42.664;23.264;2023-02-28T06:17:43;94963.78;;;5.45;88.35
77041;BME280;65974;42.664;23.264;2023-02-28T06:20:09;94959.91;;;5.42;87.94
77041;BME280;65974;42.664;23.264;2023-02-28T06:22:36;94958.34;;;5.41;88.30
77041;BME280;65974;42.664;23.264;2023-02-28T06:25:02;94959.78;;;5.39;87.82
77041;BME280;65974;42.664;23.264;2023-02-28T06:27:27;94952.88;;;5.34;87.98
77041;BME280;65974;42.664;23.264;2023-02-28T06:29:54;94970.25;;;5.35;88.34
77041;BME280;65974;42.664;23.264;2023-02-28T06:32:21;94965.19;;;5.42;88.37
77041;BME280;65974;42.664;23.264;2023-02-28T06:34:47;94970.34;;;5.39;88.43
77041;BME280;65974;42.664;23.264;2023-02-28T06:37:12;94968.47;;;5.51;88.73
77041;BME280;65974;42.664;23.264;2023-02-28T06:39:38;94970.56;;;5.58;88.45
77041;BME280;65974;42.664;23.264;2023-02-28T06:42:03;94977.59;;;5.54;88.12
77041;BME280;65974;42.664;23.264;2023-02-28T06:44:29;94977.94;;;5.65;87.75
77041;BME280;65974;42.664;23.264;2023-02-28T06:47:01;94983.44;;;5.72;87.67
77041;BME280;65974;42.664;23.264;2023-02-28T06:49:29;94977.72;;;5.70;88.02
77041;BME280;65974;42.664;23.264;2023-02-28T06:51:54;94983.44;;;5.72;88.14
77041;BME280;65974;42.664;23.264;2023-02-28T06:54:20;94981.91;;;5.71;87.88
77041;BME280;65974;42.664;23.264;2023-02-28T06:56:45;94984.88;;;5.69;87.66
77041;BME280;65974;42.664;23.264;2023-02-28T06:59:11;94982.09;;;5.78;88.01
77041;BME280;65974;42.664;23.264;2023-02-28T07:01:37;94984.22;;;5.72;88.09
77041;BME280;65974;42.664;23.264;2023-02-28T07:04:04;94981.13;;;5.70;87.62
77041;BME280;65974;42.664;23.264;2023-02-28T07:06:30;94984.75;;;5.78;88.20
77041;BME280;65974;42.664;23.264;2023-02-28T07:08:56;94983.88;;;5.74;88.69
77041;BME280;65974;42.664;23.264;2023-02-28T07:11:24;94982.09;;;5.78;88.84
77041;BME280;65974;42.664;23.264;2023-02-28T07:13:51;94992.25;;;5.64;89.21
77041;BME280;65974;42.664;23.264;2023-02-28T07:16:17;94985.41;;;5.63;89.26
77041;BME280;65974;42.664;23.264;2023-02-28T07:18:42;94987.88;;;5.56;88.64
77041;BME280;65974;42.664;23.264;2023-02-28T07:21:09;94984.88;;;5.57;89.39
77041;BME280;65974;42.664;23.264;2023-02-28T07:23:36;94983.56;;;5.51;89.33
77041;BME280;65974;42.664;23.264;2023-02-28T07:26:03;94990.28;;;5.48;89.41
77041;BME280;65974;42.664;23.264;2023-02-28T07:28:29;94986.09;;;5.47;89.59
77041;BME280;65974;42.664;23.264;2023-02-28T07:30:54;94987.88;;;5.56;89.65
77041;BME280;65974;42.664;23.264;2023-02-28T07:33:20;94995.13;;;5.59;89.47
77041;BME280;65974;42.664;23.264;2023-02-28T07:35:45;94987.31;;;5.62;89.41
77041;BME280;65974;42.664;23.264;2023-02-28T07:38:10;94989.63;;;5.64;89.53
77041;BME280;65974;42.664;23.264;2023-02-28T07:40:38;94994.00;;;5.72;89.02
77041;BME280;65974;42.664;23.264;2023-02-28T07:43:04;94998.19;;;5.61;89.41
77041;BME280;65974;42.664;23.264;2023-02-28T07:45:30;94992.91;;;5.61;89.41
77041;BME280;65974;42.664;23.264;2023-02-28T07:47:59;94992.13;;;5.72;89.44
77041;BME280;65974;42.664;23.264;2023-02-28T07:50:25;94986.16;;;5.75;88.86
77041;BME280;65974;42.664;23.264;2023-02-28T07:52:52;94990.81;;;5.66;88.66
77041;BME280;65974;42.664;23.264;2023-02-28T07:55:18;94983.91;;;5.62;89.30
77041;BME280;65974;42.664;23.264;2023-02-28T07:57:43;94985.66;;;5.58;89.08
77041;BME280;65974;42.664;23.264;2023-02-28T08:00:10;94986.09;;;5.60;89.15
77041;BME280;65974;42.664;23.264;2023-02-28T08:02:37;94980.47;;;5.61;89.57
77041;BME280;65974;42.664;23.264;2023-02-28T08:05:03;94984.97;;;5.61;88.99
77041;BME280;65974;42.664;23.264;2023-02-28T08:07:29;94979.03;;;5.64;89.14
77041;BME280;65974;42.664;23.264;2023-02-28T08:09:54;94974.75;;;5.59;89.10
77041;BME280;65974;42.664;23.264;2023-02-28T08:12:20;94979.69;;;5.61;89.02
77041;BME280;65974;42.664;23.264;2023-02-28T08:14:45;94981.34;;;5.65;89.36
77041;BME280;65974;42.664;23.264;2023-02-28T08:17:11;94985.63;;;5.70;89.13
77041;BME280;65974;42.664;23.264;2023-02-28T08:19:36;94982.56;;;5.68;89.09
77041;BME280;65974;42.664;23.264;2023-02-28T08:22:02;94987.19;;;5.71;89.23
77041;BME280;65974;42.664;23.264;2023-02-28T08:24:28;94988.72;;;5.72;89.28
77041;BME280;65974;42.664;23.264;2023-02-28T08:26:54;94989.38;;;5.69;89.13
77041;BME280;65974;42.664;23.264;2023-02-28T08:29:19;94996.66;;;5.72;89.67
77041;BME280;65974;42.664;23.264;2023-02-28T08:31:45;94996.13;;;5.66;89.92
77041;BME280;65974;42.664;23.264;2023-02-28T08:34:12;94999.19;;;5.68;89.41
77041;BME280;65974;42.664;23.264;2023-02-28T08:36:39;94994.44;;;5.74;89.67
77041;BME280;65974;42.664;23.264;2023-02-28T08:39:05;95007.66;;;5.74;89.40
77041;BME280;65974;42.664;23.264;2023-02-28T08:41:31;94999.63;;;5.70;89.23
77041;BME280;65974;42.664;23.264;2023-02-28T08:43:56;95002.72;;;5.72;89.27
77041;BME280;65974;42.664;23.264;2023-02-28T08:46:22;95005.66;;;5.83;89.65
77041;BME280;65974;42.664;23.264;2023-02-28T08:48:51;95000.59;;;5.78;89.39
77041;BME280;65974;42.664;23.264;2023-02-28T08:51:19;95001.47;;;5.82;89.17
77041;BME280;65974;42.664;23.264;2023-02-28T08:53:54;95002.25;;;5.94;88.89
77041;BME280;65974;42.664;23.264;2023-02-28T08:56:21;95000.94;;;5.88;88.55
77041;BME280;65974;42.664;23.264;2023-02-28T08:58:56;95004.44;;;5.92;88.74
77041;BME280;65974;42.664;23.264;2023-02-28T09:01:24;95003.88;;;5.99;88.82
77041;BME280;65974;42.664;23.264;2023-02-28T09:03:51;95002.47;;;6.01;88.62
77041;BME280;65974;42.664;23.264;2023-02-28T09:06:18;95000.34;;;6.07;88.36
77041;BME280;65974;42.664;23.264;2023-02-28T09:08:44;94999.78;;;6.13;88.58
77041;BME280;65974;42.664;23.264;2023-02-28T09:11:10;95002.63;;;6.20;88.54
77041;BME280;65974;42.664;23.264;2023-02-28T09:13:36;94998.22;;;6.24;88.77
77041;BME280;65974;42.664;23.264;2023-02-28T09:16:03;94993.69;;;6.25;88.11
77041;BME280;65974;42.664;23.264;2023-02-28T09:18:29;94993.91;;;6.32;87.63
77041;BME280;65974;42.664;23.264;2023-02-28T09:20:55;94999.38;;;6.39;87.94
77041;BME280;65974;42.664;23.264;2023-02-28T09:23:21;95002.44;;;6.41;87.55
77041;BME280;65974;42.664;23.264;2023-02-28T09:25:49;94996.91;;;6.46;87.61
77041;BME280;65974;42.664;23.264;2023-02-28T09:28:15;94987.19;;;6.50;87.45
77041;BME280;65974;42.664;23.264;2023-02-28T09:30:43;94988.75;;;6.51;87.45
77041;BME280;65974;42.664;23.264;2023-02-28T09:33:09;94992.91;;;6.52;87.58
77041;BME280;65974;42.664;23.264;2023-02-28T09:35:35;94995.06;;;6.62;87.05
77041;BME280;65974;42.664;23.264;2023-02-28T09:38:02;94988.34;;;6.65;87.28
77041;BME280;65974;42.664;23.264;2023-02-28T09:40:28;94993.97;;;6.63;87.40
77041;BME280;65974;42.664;23.264;2023-02-28T09:42:55;94998.19;;;6.64;87.27
77041;BME280;65974;42.664;23.264;2023-02-28T09:45:52;94985.31;;;6.78;86.61
77041;BME280;65974;42.664;23.264;2023-02-28T09:48:28;94983.09;;;6.80;86.67
77041;BME280;65974;42.664;23.264;2023-02-28T09:51:03;94993.00;;;6.83;86.89
77041;BME280;65974;42.664;23.264;2023-02-28T09:53:32;94984.78;;;6.88;86.99
77041;BME280;65974;42.664;23.264;2023-02-28T09:56:30;94973.78;;;6.86;86.75
77041;BME280;65974;42.664;23.264;2023-02-28T10:04:50;94981.41;;;7.03;86.39
77041;BME280;65974;42.664;23.264;2023-02-28T10:07:16;94974.41;;;6.95;86.56
77041;BME280;65974;42.664;23.264;2023-02-28T10:09:46;94968.59;;;7.05;86.40
77041;BME280;65974;42.664;23.264;2023-02-28T10:12:16;94965.41;;;7.16;86.51
77041;BME280;65974;42.664;23.264;2023-02-28T10:14:45;94961.75;;;7.20;86.03
77041;BME280;65974;42.664;23.264;2023-02-28T10:17:19;94965.16;;;7.21;85.87
77041;BME280;65974;42.664;23.264;2023-02-28T10:22:19;94965.06;;;7.33;85.74
77041;BME280;65974;42.664;23.264;2023-02-28T10:24:48;94957.78;;;7.45;85.08
77041;BME280;65974;42.664;23.264;2023-02-28T10:27:21;94958.56;;;7.46;85.43
77041;BME280;65974;42.664;23.264;2023-02-28T10:29:49;94945.91;;;7.55;85.31
77041;BME280;65974;42.664;23.264;2023-02-28T10:32:20;94943.91;;;7.67;85.57
77041;BME280;65974;42.664;23.264;2023-02-28T10:37:26;94929.28;;;8.12;83.81
77041;BME280;65974;42.664;23.264;2023-02-28T10:39:52;94923.78;;;8.20;83.74
77041;BME280;65974;42.664;23.264;2023-02-28T10:42:28;94924.44;;;8.33;83.33
77041;BME280;65974;42.664;23.264;2023-02-28T10:47:59;94906.56;;;8.72;81.82
77041;BME280;65974;42.664;23.264;2023-02-28T10:50:44;94905.81;;;8.94;80.71
77041;BME280;65974;42.664;23.264;2023-02-28T10:53:28;94902.75;;;9.18;80.34
77041;BME280;65974;42.664;23.264;2023-02-28T11:03:59;94890.72;;;9.80;75.74
77041;BME280;65974;42.664;23.264;2023-02-28T11:06:33;94876.06;;;9.93;75.42
77041;BME280;65974;42.664;23.264;2023-02-28T11:09:22;94873.50;;;10.00;74.65
77041;BME280;65974;42.664;23.264;2023-02-28T11:11:47;94872.34;;;9.97;73.97
77041;BME280;65974;42.664;23.264;2023-02-28T11:14:36;94873.94;;;10.05;74.07
77041;BME280;65974;42.664;23.264;2023-02-28T11:17:25;94872.03;;;10.02;73.66
77041;BME280;65974;42.664;23.264;2023-02-28T11:20:17;94869.84;;;10.11;74.15
77041;BME280;65974;42.664;23.264;2023-02-28T11:22:44;94861.56;;;10.17;72.60
77041;BME280;65974;42.664;23.264;2023-02-28T11:25:33;94863.22;;;10.28;72.21
77041;BME280;65974;42.664;23.264;2023-02-28T11:31:04;94862.38;;;10.57;72.45
77041;BME280;65974;42.664;23.264;2023-02-28T11:33:32;94860.03;;;10.52;71.63
77041;BME280;65974;42.664;23.264;2023-02-28T11:36:12;94855.16;;;10.58;71.84
77041;BME280;65974;42.664;23.264;2023-02-28T11:38:38;94852.81;;;10.56;71.83
77041;BME280;65974;42.664;23.264;2023-02-28T11:41:14;94855.16;;;10.58;71.74
77041;BME280;65974;42.664;23.264;2023-02-28T11:44:05;94856.66;;;10.59;71.42
77041;BME280;65974;42.664;23.264;2023-02-28T11:46:47;94841.75;;;10.51;72.01
77041;BME280;65974;42.664;23.264;2023-02-28T11:49:23;94847.56;;;10.60;71.53
77041;BME280;65974;42.664;23.264;2023-02-28T12:00:14;94847.91;;;11.02;70.97
77041;BME280;65974;42.664;23.264;2023-02-28T12:03:04;94840.69;;;11.03;69.77
77041;BME280;65974;42.664;23.264;2023-02-28T12:25:42;94839.44;;;10.93;70.08
77041;BME280;65974;42.664;23.264;2023-02-28T12:28:14;94835.75;;;11.05;69.59
77041;BME280;65974;42.664;23.264;2023-02-28T12:30:52;94841.09;;;11.08;69.50
77041;BME280;65974;42.664;23.264;2023-02-28T12:33:23;94838.75;;;11.03;68.61
77041;BME280;65974;42.664;23.264;2023-02-28T12:35:54;94836.91;;;11.07;68.44
77041;BME280;65974;42.664;23.264;2023-02-28T12:38:41;94839.13;;;10.98;67.81
77041;BME280;65974;42.664;23.264;2023-02-28T12:41:22;94840.91;;;10.83;69.19
77041;BME280;65974;42.664;23.264;2023-02-28T12:44:02;94832.47;;;10.78;69.67
77041;BME280;65974;42.664;23.264;2023-02-28T12:46:33;94837.75;;;10.71;69.28
77041;BME280;65974;42.664;23.264;2023-02-28T12:49:18;94838.41;;;10.61;69.59
77041;BME280;65974;42.664;23.264;2023-02-28T12:51:46;94832.28;;;10.53;69.55
77041;BME280;65974;42.664;23.264;2023-02-28T12:54:28;94829.59;;;10.50;69.95
77041;BME280;65974;42.664;23.264;2023-02-28T12:59:59;94824.69;;;10.59;69.45
77041;BME280;65974;42.664;23.264;2023-02-28T13:10:46;94818.22;;;10.56;69.68
77041;BME280;65974;42.664;23.264;2023-02-28T13:13:21;94827.38;;;10.59;69.28
77041;BME280;65974;42.664;23.264;2023-02-28T13:18:37;94825.34;;;10.45;69.97
77041;BME280;65974;42.664;23.264;2023-02-28T13:21:07;94821.53;;;10.46;69.69
77041;BME280;65974;42.664;23.264;2023-02-28T13:23:37;94817.00;;;10.50;69.91
77041;BME280;65974;42.664;23.264;2023-02-28T13:26:03;94814.00;;;10.52;69.47
77041;BME280;65974;42.664;23.264;2023-02-28T13:31:16;94818.19;;;10.53;69.21
77041;BME280;65974;42.664;23.264;2023-02-28T13:38:54;94814.34;;;10.47;68.29
77041;BME280;65974;42.664;23.264;2023-02-28T13:52:00;94788.81;;;10.46;67.04
77041;BME280;65974;42.664;23.264;2023-02-28T13:54:43;94794.13;;;10.42;67.11
77041;BME280;65974;42.664;23.264;2023-02-28T13:57:20;94791.44;;;10.39;67.20
77041;BME280;65974;42.664;23.264;2023-02-28T14:02:41;94786.84;;;10.36;68.08
77041;BME280;65974;42.664;23.264;2023-02-28T14:05:21;94789.13;;;10.37;67.91
77041;BME280;65974;42.664;23.264;2023-02-28T14:07:53;94786.41;;;10.30;67.82
77041;BME280;65974;42.664;23.264;2023-02-28T14:10:26;94792.09;;;10.29;68.01
77041;BME280;65974;42.664;23.264;2023-02-28T14:17:55;94783.28;;;10.21;68.40
77041;BME280;65974;42.664;23.264;2023-02-28T14:20:22;94787.84;;;10.21;69.14
77041;BME280;65974;42.664;23.264;2023-02-28T14:26:00;94776.38;;;10.17;69.05
77041;BME280;65974;42.664;23.264;2023-02-28T14:31:37;94782.09;;;10.19;69.10
77041;BME280;65974;42.664;23.264;2023-02-28T14:34:21;94785.91;;;10.18;68.90
77041;BME280;65974;42.664;23.264;2023-02-28T14:36:52;94786.31;;;10.20;68.23
77041;BME280;65974;42.664;23.264;2023-02-28T14:39:22;94780.59;;;10.18;69.12
77041;BME280;65974;42.664;23.264;2023-02-28T14:41:49;94774.81;;;10.12;68.68
77041;BME280;65974;42.664;23.264;2023-02-28T14:46:49;94778.25;;;10.12;68.95
77041;BME280;65974;42.664;23.264;2023-02-28T14:49:26;94777.03;;;10.06;68.55
77041;BME280;65974;42.664;23.264;2023-02-28T14:54:28;94778.09;;;9.98;69.03
77041;BME280;65974;42.664;23.264;2023-02-28T14:56:54;94776.94;;;9.99;69.87
77041;BME280;65974;42.664;23.264;2023-02-28T14:59:29;94776.16;;;9.95;70.39
77041;BME280;65974;42.664;23.264;2023-02-28T15:02:23;94775.31;;;9.88;70.12
77041;BME280;65974;42.664;23.264;2023-02-28T15:04:58;94767.69;;;9.86;70.00
77041;BME280;65974;42.664;23.264;2023-02-28T15:07:24;94777.88;;;9.77;70.69
77041;BME280;65974;42.664;23.264;2023-02-28T15:10:26;94775.22;;;9.77;70.39
77041;BME280;65974;42.664;23.264;2023-02-28T15:12:58;94779.41;;;9.82;70.07
77041;BME280;65974;42.664;23.264;2023-02-28T15:15:37;94772.13;;;9.75;70.94
77041;BME280;65974;42.664;23.264;2023-02-28T15:18:05;94770.59;;;9.74;71.26
77041;BME280;65974;42.664;23.264;2023-02-28T15:20:31;94780.69;;;9.58;71.88
77041;BME280;65974;42.664;23.264;2023-02-28T15:22:58;94774.13;;;9.52;72.03
77041;BME280;65974;42.664;23.264;2023-02-28T15:25:24;94783.19;;;9.48;72.24
77041;BME280;65974;42.664;23.264;2023-02-28T15:27:53;94787.75;;;9.47;72.23
77041;BME280;65974;42.664;23.264;2023-02-28T15:30:26;94799.75;;;9.34;73.11
77041;BME280;65974;42.664;23.264;2023-02-28T15:35:37;94787.13;;;9.27;73.45
77041;BME280;65974;42.664;23.264;2023-02-28T15:38:15;94792.41;;;9.24;73.72
77041;BME280;65974;42.664;23.264;2023-02-28T15:40:44;94793.00;;;9.14;73.86